Terminal Aerodrome Forecast
Issued by NWS Albany, NY

Current Version | Previous Version | Text Only | Print | Product List | Glossary On
Versions: 1 2 3 4 5 6 7 8 9 10 11 12 13 14 15 16 17 18 19
000
FTUS41 KALY 271131
TAFALB
TAF
KALB 271131Z 2712/2812 17010KT P6SM BKN150
     FM271400 17012G18KT P6SM VCSH BKN080
     FM271800 18014G22KT P6SM VCSH BKN045 PROB30 2721/2724
      VRB20G35KT 2SM TSRA OVC012CB
     FM280300 18010G15KT P6SM VCSH BKN060
     FM280700 18007KT 5SM BR BKN080=

USA.gov is the U.S. government's official web portal to all federal, state and local government web resources and services.